Have a Safe July 4th! 

Flight Track Log - Related Links

Times and Time Zones

All times are in EDT time to prevent confusion due to time zone crossing. See the DAL1515 flight status page for this flight to view local times or setup timezone preferences in your user account.

Time Position Orientation Groundspeed Altitude Reporting Facility
EDT Latitude Longitude Course Direction KTS MPH feet Rate Location/Type
Sun 08:38:22 PM 33.6500 -84.4500 North 164 189 2,100  Level Atlanta TRACON
Sun 08:39:22 PM 33.6667 -84.5167 287° West 230 265 3,200 1,700 Climbing Atlanta TRACON
Sun 08:40:22 PM 33.7167 -84.5833 312° West 289 333 5,500 2,158 Climbing Atlanta TRACON
Sun 08:42:00 PM 34.0914 -84.2667 North  Level FlightAware Approximate
Sun 08:42:45 PM 33.8747 -84.4992 24° Northeast 278 320 10,500  Level Atlanta Center
Sun 08:43:00 PM 34.2218 -84.2667 North  Level FlightAware Approximate
Sun 08:43:45 PM 33.9503 -84.3969 48° Northeast 333 383 11,900  Level Atlanta Center
Sun 08:44:45 PM 34.0589 -84.3597 16° North 369 425 13,700 2,050 Climbing Atlanta Center
Sun 08:45:45 PM 34.1717 -84.3200 16° North 399 459 16,000 2,050 Climbing Atlanta Center
Sun 08:46:45 PM 34.2844 -84.2803 16° North 415 478 17,800 2,050 Climbing Atlanta Center
Sun 08:47:45 PM 34.4014 -84.2553 10° North 426 490 20,100 1,800 Climbing Atlanta Center
Sun 08:48:45 PM 34.5206 -84.2278 11° North 426 490 21,400 1,600 Climbing Atlanta Center
Sun 08:49:45 PM 34.6394 -84.2003 11° North 431 496 23,300 1,400 Climbing Atlanta Center
Sun 08:50:45 PM 34.7439 -84.1753 11° North 425 489 24,200 1,000 Climbing Atlanta Center
Sun 08:51:45 PM 34.8647 -84.1475 11° North 430 495 25,300 1,050 Climbing Atlanta Center
Sun 08:52:45 PM 34.9922 -84.1175 11° North 441 507 26,300 1,050 Climbing Atlanta Center
Sun 08:53:45 PM 35.1175 -84.0844 12° North 452 520 27,400 1,000 Climbing Atlanta Center
Sun 08:54:45 PM 35.2447 -84.0539 11° North 457 526 28,300 700 Climbing Atlanta Center
Sun 08:55:45 PM 35.3697 -83.9981 20° North 457 526 28,800 450 Climbing Atlanta Center
Sun 08:56:45 PM 35.4972 -83.9444 19° North 470 541 29,200 750 Climbing Atlanta Center
Sun 08:57:45 PM 35.6264 -83.8881 20° North 481 554 30,300 1,050 Climbing Atlanta Center
Sun 08:58:45 PM 35.7514 -83.8314 20° North 481 554 31,300 900 Climbing Atlanta Center
Sun 08:59:45 PM 35.8744 -83.7800 19° North 481 554 32,100 800 Climbing Atlanta Center
Sun 09:00:45 PM 35.9953 -83.7256 20° North 467 537 32,900 450 Climbing Atlanta Center
Sun 09:01:45 PM 36.1161 -83.6711 20° North 467 537 33,000 50 Climbing Atlanta Center
Sun 09:02:45 PM 36.2389 -83.6167 20° North 467 537 33,000  Level Atlanta Center
Sun 09:03:45 PM 36.3722 -83.5514 22° Northeast 467 537 33,000  Level Atlanta Center
Sun 09:04:45 PM 36.4950 -83.4964 20° North 467 537 33,000  Level Atlanta Center
Sun 09:06:00 PM 36.6347 -83.4264 22° Northeast 469 540 33,000  Level Indianapolis Center
Sun 09:07:01 PM 36.7422 -83.3281 36° Northeast 471 542 33,000  Level Indianapolis Center
Sun 09:08:03 PM 36.8481 -83.2267 37° Northeast 473 544 33,000  Level Indianapolis Center
Sun 09:09:04 PM 36.9750 -83.1072 37° Northeast 480 552 33,000  Level Indianapolis Center
Sun 09:10:06 PM 37.0853 -83.0039 37° Northeast 484 557 33,000  Level Indianapolis Center
Sun 09:11:07 PM 37.1936 -82.8997 37° Northeast 483 556 33,000  Level Indianapolis Center
Sun 09:12:09 PM 37.3006 -82.7964 38° Northeast 483 556 33,000  Level Indianapolis Center
Sun 09:13:10 PM 37.4083 -82.6931 37° Northeast 485 558 33,000  Level Indianapolis Center
Sun 09:14:12 PM 37.5150 -82.5889 38° Northeast 485 558 33,000  Level Indianapolis Center
Sun 09:15:13 PM 37.6222 -82.4861 37° Northeast 482 555 33,000  Level Indianapolis Center
Sun 09:16:15 PM 37.7303 -82.3808 38° Northeast 488 562 33,000  Level Indianapolis Center
Sun 09:17:16 PM 37.8408 -82.2744 37° Northeast 497 572 33,000  Level Indianapolis Center
Sun 09:18:17 PM 37.9500 -82.1683 37° Northeast 495 570 33,000  Level Indianapolis Center
Sun 09:19:19 PM 38.0583 -82.0619 38° Northeast 496 571 33,000  Level Indianapolis Center
Sun 09:20:20 PM 38.1658 -81.9547 38° Northeast 492 566 33,000  Level Indianapolis Center
Sun 09:21:22 PM 38.2961 -81.8244 38° Northeast 496 571 33,000  Level Indianapolis Center
Sun 09:22:23 PM 38.3969 -81.7042 43° Northeast 503 579 33,000  Level Indianapolis Center
Sun 09:23:24 PM 38.4889 -81.5714 48° Northeast 503 579 33,000  Level Indianapolis Center
Sun 09:24:26 PM 38.5808 -81.4378 49° Northeast 509 586 33,000  Level Indianapolis Center
Sun 09:25:27 PM 38.6744 -81.3061 48° Northeast 512 589 33,000  Level Indianapolis Center
Sun 09:26:28 PM 38.7686 -81.1711 48° Northeast 515 593 33,000  Level Indianapolis Center
Sun 09:27:30 PM 38.8833 -81.0044 48° Northeast 521 600 33,000  Level Indianapolis Center
Sun 09:28:31 PM 38.9817 -80.8633 48° Northeast 530 610 33,000  Level Indianapolis Center
Sun 09:29:32 PM 39.0786 -80.7231 48° Northeast 526 605 33,000  Level Indianapolis Center
Sun 09:30:34 PM 39.1786 -80.5842 47° Northeast 528 608 33,000  Level Indianapolis Center
Sun 09:31:35 PM 39.2772 -80.4450 48° Northeast 527 606 33,000  Level Indianapolis Center
Sun 09:32:36 PM 39.3750 -80.3067 48° Northeast 523 602 33,000  Level Indianapolis Center
Sun 09:33:38 PM 39.4722 -80.1694 47° Northeast 521 600 33,000  Level Indianapolis Center
Sun 09:34:12 PM 39.5408 -80.0769 46° Northeast 518 596 33,000  Level Cleveland Center
Sun 09:35:12 PM 39.6256 -79.9497 49° Northeast 518 596 33,000  Level Cleveland Center
Sun 09:36:12 PM 39.7186 -79.8111 49° Northeast 512 589 33,000  Level Cleveland Center
Sun 09:37:12 PM 39.8156 -79.6694 48° Northeast 512 589 33,000  Level Cleveland Center
Sun 09:38:12 PM 39.9122 -79.5303 48° Northeast 518 596 33,000  Level Cleveland Center
Sun 09:39:12 PM 40.0047 -79.3878 50° Northeast 518 596 33,000  Level Cleveland Center
Sun 09:40:12 PM 40.1072 -79.2314 49° Northeast 512 589 33,000  Level Cleveland Center
Sun 09:41:12 PM 40.2011 -79.0908 49° Northeast 517 595 33,000  Level Cleveland Center
Sun 09:42:12 PM 40.2931 -78.9525 49° Northeast 517 595 33,000  Level Cleveland Center
Sun 09:43:12 PM 40.3869 -78.8086 49° Northeast 517 595 33,000  Level Cleveland Center
Sun 09:44:12 PM 40.4783 -78.6697 49° Northeast 517 595 33,000  Level Cleveland Center
Sun 09:45:12 PM 40.5719 -78.5303 49° Northeast 517 595 33,000  Level Cleveland Center
Sun 09:48:03 PM 40.8256 -78.1431 49° Northeast 501 577 33,000  Level New York Center
Sun 09:49:03 PM 40.9136 -78.0014 51° Northeast 501 577 33,000  Level New York Center
Sun 09:50:04 PM 41.0028 -77.8681 48° Northeast 496 571 33,000 -49 Level New York Center
Sun 09:51:06 PM 41.0961 -77.7372 47° Northeast 496 571 32,900 -1,160 Descending New York Center
Sun 09:52:03 PM 41.1964 -77.5903 48° Northeast 491 565 30,700 -2,000 Descending New York Center
Sun 09:53:03 PM 41.2875 -77.4531 49° Northeast 491 565 29,000 -843 Descending New York Center
Sun 09:54:04 PM 41.3783 -77.3211 47° Northeast 484 557 29,000  Level New York Center
Sun 09:55:03 PM 41.4533 -77.2067 49° Northeast 490 564 29,000  Level New York Center
Sun 09:56:03 PM 41.5572 -77.0531 48° Northeast 496 571 29,000  Level New York Center
Sun 09:57:04 PM 41.6497 -76.9172 48° Northeast 496 571 29,000  Level New York Center
Sun 09:58:04 PM 41.7422 -76.7783 48° Northeast 496 571 29,000 -151 Level New York Center
Sun 09:59:03 PM 41.8325 -76.6417 48° Northeast 502 578 28,700 -1,065 Descending New York Center
Sun 10:00:53 PM 42.0111 -76.3747 48° Northeast 509 586 26,000 -890 Descending Boston Center
Sun 10:02:05 PM 42.1011 -76.2375 48° Northeast 497 572 26,000 -455 Level Boston Center
Sun 10:03:05 PM 42.1944 -76.0667 54° Northeast 485 558 25,000 -1,000 Descending Boston Center
Sun 10:04:05 PM 42.2472 -75.9069 66° East 464 534 24,000 -500 Descending Boston Center
Sun 10:05:05 PM 42.3000 -75.7528 65° Northeast 458 527 24,000 -50 Level Boston Center
Sun 10:06:05 PM 42.3525 -75.5897 66° East 458 527 23,900 -1,000 Descending Boston Center
Sun 10:07:05 PM 42.4067 -75.4350 65° Northeast 458 527 22,000 -2,100 Descending Boston Center
Sun 10:08:05 PM 42.4564 -75.2825 66° East 450 518 19,700 -2,300 Descending Boston Center
Sun 10:09:05 PM 42.4917 -75.1236 73° East 438 504 17,400 -2,000 Descending Boston Center
Sun 10:10:05 PM 42.5222 -74.9669 75° East 432 497 15,700 -1,636 Descending Boston Center
Sun 10:11:17 PM 42.5525 -74.8217 74° East 420 483 13,800 -1,591 Descending Boston Center
Sun 10:12:17 PM 42.5853 -74.6481 76° East 398 458 12,200 -1,541 Descending Boston Center
Sun 10:13:06 PM 42.6019 -74.5331 79° East 365 420 11,000 -1,138 Descending Boston Center
Sun 10:14:13 PM 42.5919 -74.3944 96° East 330 380 10,000 -1,172 Descending Boston Center
Sun 10:15:14 PM 42.5856 -74.2758 94° East 311 358 8,500 -1,426 Descending Boston Center
Sun 10:16:15 PM 42.5769 -74.1628 96° East 305 351 7,100 -1,438 Descending Boston Center
Sun 10:17:15 PM 42.5725 -74.0472 93° East 285 328 5,600 -1,488 Descending Boston Center
Sun 10:18:16 PM 42.5656 -73.9397 95° East 283 326 4,100 -1,230 Descending Boston Center
Sun 10:19:17 PM 42.5625 -73.8522 93° East 265 305 3,100 -984 Descending Boston Center

Login

Don't have an account? Register now (free) for customized features, flight alerts, and more!